Time;durP1;ratioP1;P1;durP2;ratioP2;P2;SDS_P1;SDS_P2;PMS_P1;PMS_P2;Temp;Humidity;BMP_temperature;BMP_pressure;BME280_temperature;BME280_humidity;BME280_pressure;Samples;Min_cycle;Max_cycle;Signal;HPM_P1;HPM_P2
2023/10/31 00:02:11;;;;;;;15.60;2.63;;;;;;;;;;5099074;28;20416;-76
2023/10/31 00:04:37;;;;;;;16.00;2.78;;;;;;;;;;5096131;28;20509;-75
2023/10/31 00:07:04;;;;;;;17.17;2.75;;;;;;;;;;5099162;28;20410;-76
2023/10/31 00:09:31;;;;;;;16.48;3.03;;;;;;;;;;5082557;28;20455;-76
2023/10/31 00:11:59;;;;;;;15.80;2.70;;;;;;;;;;5100831;28;20416;-75
2023/10/31 00:14:26;;;;;;;17.00;3.03;;;;;;;;;;5105755;28;20411;-76
2023/10/31 00:16:57;;;;;;;16.52;3.30;;;;;;;;;;5098391;28;20428;-75
2023/10/31 00:19:24;;;;;;;16.03;3.20;;;;;;;;;;5096080;28;20412;-76
2023/10/31 00:21:50;;;;;;;16.50;3.40;;;;;;;;;;5108967;28;20512;-76
2023/10/31 00:24:17;;;;;;;17.20;4.35;;;;;;;;;;5102945;28;20845;-76
2023/10/31 00:26:44;;;;;;;18.20;3.92;;;;;;;;;;5104261;28;20429;-76
2023/10/31 00:29:12;;;;;;;17.45;4.45;;;;;;;;;;5100941;28;20509;-78
2023/10/31 00:31:41;;;;;;;18.17;4.07;;;;;;;;;;5097470;28;20574;-75
2023/10/31 00:34:08;;;;;;;17.25;4.28;;;;;;;;;;5118298;27;20412;-75
2023/10/31 00:36:35;;;;;;;17.55;4.00;;;;;;;;;;5108687;28;20436;-74
2023/10/31 00:39:01;;;;;;;16.95;4.22;;;;;;;;;;5086542;28;20499;-75
2023/10/31 00:41:29;;;;;;;17.20;4.03;;;;;;;;;;5103946;28;20463;-75
2023/10/31 00:43:55;;;;;;;17.55;3.67;;;;;;;;;;5099977;28;20923;-76
2023/10/31 00:46:23;;;;;;;16.67;3.30;;;;;;;;;;5098662;28;20499;-75
2023/10/31 00:48:50;;;;;;;17.63;2.60;;;;;;;;;;5089695;28;20910;-76
2023/10/31 00:51:17;;;;;;;15.43;2.45;;;;;;;;;;5088545;28;20419;-76
2023/10/31 00:53:43;;;;;;;15.73;2.42;;;;;;;;;;5109011;28;20515;-75
2023/10/31 00:56:10;;;;;;;16.27;2.70;;;;;;;;;;5095446;28;21210;-76
2023/10/31 00:58:37;;;;;;;16.05;2.67;;;;;;;;;;5088212;28;20420;-75
2023/10/31 01:01:03;;;;;;;15.65;2.38;;;;;;;;;;5102090;28;20411;-75
2023/10/31 01:03:31;;;;;;;15.40;2.70;;;;;;;;;;5103963;28;21104;-75
2023/10/31 01:05:58;;;;;;;16.98;2.80;;;;;;;;;;5102417;28;20837;-76
2023/10/31 01:08:24;;;;;;;16.10;2.70;;;;;;;;;;5101974;28;20418;-76
2023/10/31 01:10:51;;;;;;;16.27;2.67;;;;;;;;;;5093908;28;20444;-76
2023/10/31 01:13:18;;;;;;;15.80;2.50;;;;;;;;;;5101699;28;20414;-76
2023/10/31 01:15:45;;;;;;;18.33;3.03;;;;;;;;;;5104266;28;20409;-75
2023/10/31 01:18:12;;;;;;;17.30;2.35;;;;;;;;;;5081712;28;20419;-75
2023/10/31 01:20:40;;;;;;;16.35;2.50;;;;;;;;;;5101728;28;20487;-76
2023/10/31 01:23:06;;;;;;;16.10;2.67;;;;;;;;;;5100641;28;20502;-75
2023/10/31 01:25:33;;;;;;;16.88;2.58;;;;;;;;;;5096495;28;20414;-74
2023/10/31 01:27:59;;;;;;;15.80;2.30;;;;;;;;;;5084035;28;20467;-75
2023/10/31 01:30:26;;;;;;;17.20;2.70;;;;;;;;;;5101338;28;20461;-75
2023/10/31 01:32:53;;;;;;;15.70;2.40;;;;;;;;;;5103807;28;20754;-76
2023/10/31 01:35:19;;;;;;;16.40;2.40;;;;;;;;;;5103824;28;20412;-75
2023/10/31 01:37:47;;;;;;;16.10;2.47;;;;;;;;;;5108477;28;20437;-75
2023/10/31 01:40:14;;;;;;;15.70;2.50;;;;;;;;;;5099701;28;20396;-77
2023/10/31 01:42:41;;;;;;;16.55;2.33;;;;;;;;;;5100687;28;21053;-76
2023/10/31 01:45:08;;;;;;;16.05;2.50;;;;;;;;;;5095214;28;20428;-75
2023/10/31 01:47:35;;;;;;;18.00;2.83;;;;;;;;;;5099710;28;20826;-75
2023/10/31 01:50:02;;;;;;;15.45;2.10;;;;;;;;;;5102771;28;20471;-75
2023/10/31 01:52:32;;;;;;;18.75;2.30;;;;;;;;;;5086695;28;20424;-76
2023/10/31 01:55:00;;;;;;;16.33;2.10;;;;;;;;;;5085647;28;20412;-74
2023/10/31 01:57:28;;;;;;;18.75;2.50;;;;;;;;;;5101666;28;20422;-74
2023/10/31 01:59:54;;;;;;;15.00;1.90;;;;;;;;;;5096648;28;20420;-75
2023/10/31 02:02:22;;;;;;;17.77;2.33;;;;;;;;;;5100261;28;20416;-77
2023/10/31 02:04:49;;;;;;;16.13;2.20;;;;;;;;;;5091302;28;20499;-75
2023/10/31 02:07:16;;;;;;;16.33;2.40;;;;;;;;;;5107340;28;20453;-75
2023/10/31 02:09:43;;;;;;;16.50;2.30;;;;;;;;;;5097885;28;20412;-74
2023/10/31 02:12:11;;;;;;;17.13;2.40;;;;;;;;;;5089737;28;20854;-74
2023/10/31 02:14:37;;;;;;;14.70;1.90;;;;;;;;;;5101181;28;20509;-74
2023/10/31 02:17:04;;;;;;;14.90;1.80;;;;;;;;;;5083867;28;20487;-75
2023/10/31 02:19:30;;;;;;;16.98;2.20;;;;;;;;;;5101110;28;20415;-75
2023/10/31 02:21:59;;;;;;;16.63;1.90;;;;;;;;;;5097582;28;20408;-76
2023/10/31 02:24:26;;;;;;;15.80;1.90;;;;;;;;;;5084726;28;20496;-76
2023/10/31 02:26:53;;;;;;;15.93;1.85;;;;;;;;;;5099923;28;20398;-75
2023/10/31 02:29:19;;;;;;;19.30;2.17;;;;;;;;;;5099345;28;20406;-75
2023/10/31 02:31:46;;;;;;;15.23;1.73;;;;;;;;;;5097759;28;20444;-75
2023/10/31 02:34:13;;;;;;;16.25;2.20;;;;;;;;;;5099876;28;20405;-76
2023/10/31 02:36:41;;;;;;;15.50;1.80;;;;;;;;;;5105892;28;20408;-75
2023/10/31 02:39:09;;;;;;;17.80;2.03;;;;;;;;;;5082948;28;20411;-75
2023/10/31 02:41:36;;;;;;;19.17;2.15;;;;;;;;;;5108133;28;20408;-75
2023/10/31 02:44:02;;;;;;;15.75;1.90;;;;;;;;;;5084274;28;20439;-75
2023/10/31 02:46:29;;;;;;;15.65;2.50;;;;;;;;;;5103786;28;20412;-76
2023/10/31 02:48:56;;;;;;;19.80;2.40;;;;;;;;;;5086798;28;20429;-75
2023/10/31 02:51:23;;;;;;;17.27;2.20;;;;;;;;;;5099349;28;20412;-75
2023/10/31 02:53:49;;;;;;;16.10;2.20;;;;;;;;;;5083358;28;20425;-75
2023/10/31 02:56:18;;;;;;;15.70;1.73;;;;;;;;;;5083110;28;20436;-74
2023/10/31 02:58:45;;;;;;;16.00;2.15;;;;;;;;;;5100607;28;20769;-75
2023/10/31 03:01:12;;;;;;;16.40;2.45;;;;;;;;;;5097733;28;20443;-74
2023/10/31 03:03:38;;;;;;;16.13;2.30;;;;;;;;;;5099926;28;20398;-75
2023/10/31 03:06:06;;;;;;;15.10;1.85;;;;;;;;;;5089254;28;20426;-75
2023/10/31 03:08:32;;;;;;;16.75;2.17;;;;;;;;;;5098085;28;20400;-74
2023/10/31 03:10:59;;;;;;;14.85;1.80;;;;;;;;;;5106291;28;20418;-75
2023/10/31 03:13:27;;;;;;;15.27;1.77;;;;;;;;;;5104649;28;20410;-75
2023/10/31 03:15:53;;;;;;;15.07;1.80;;;;;;;;;;5089766;28;20916;-74
2023/10/31 03:18:20;;;;;;;16.35;2.03;;;;;;;;;;5086108;28;20410;-75
2023/10/31 03:20:47;;;;;;;16.10;2.10;;;;;;;;;;5096960;28;20411;-76
2023/10/31 03:23:14;;;;;;;17.27;2.60;;;;;;;;;;5082583;28;20410;-74
2023/10/31 03:25:41;;;;;;;15.60;1.90;;;;;;;;;;5107567;28;20422;-76
2023/10/31 03:28:17;;;;;;;15.52;1.85;;;;;;;;;;5096663;28;20497;-74
2023/10/31 03:30:45;;;;;;;15.03;1.70;;;;;;;;;;5103458;28;20460;-75
2023/10/31 03:33:12;;;;;;;15.70;1.80;;;;;;;;;;5096253;28;20422;-75
2023/10/31 03:35:38;;;;;;;15.50;1.70;;;;;;;;;;5097439;28;20483;-75
2023/10/31 03:38:05;;;;;;;14.93;1.55;;;;;;;;;;5089151;28;20401;-75
2023/10/31 03:40:31;;;;;;;16.20;1.80;;;;;;;;;;5096808;28;20406;-77
2023/10/31 03:42:58;;;;;;;15.18;1.63;;;;;;;;;;5097062;28;20405;-76
2023/10/31 03:45:25;;;;;;;14.50;1.40;;;;;;;;;;5100212;28;20412;-75
2023/10/31 03:47:53;;;;;;;15.73;1.40;;;;;;;;;;5098757;28;20432;-74
2023/10/31 03:50:20;;;;;;;15.00;1.52;;;;;;;;;;5101723;28;20406;-77
2023/10/31 03:52:47;;;;;;;15.05;1.40;;;;;;;;;;5102452;28;20501;-75
2023/10/31 03:55:13;;;;;;;16.23;1.38;;;;;;;;;;5097571;28;20414;-75
2023/10/31 03:57:40;;;;;;;15.38;1.70;;;;;;;;;;5108765;28;20413;-76
2023/10/31 04:00:07;;;;;;;15.60;1.60;;;;;;;;;;5108659;28;20493;-75
2023/10/31 04:02:39;;;;;;;15.10;1.40;;;;;;;;;;5106736;28;20924;-75
2023/10/31 04:05:07;;;;;;;14.27;1.30;;;;;;;;;;5101838;28;20515;-75
2023/10/31 04:07:34;;;;;;;15.10;1.40;;;;;;;;;;5100391;28;20450;-75
2023/10/31 04:10:01;;;;;;;15.05;1.48;;;;;;;;;;5102351;28;20404;-75
2023/10/31 04:12:27;;;;;;;15.98;1.70;;;;;;;;;;5092801;28;20467;-73
2023/10/31 04:14:54;;;;;;;14.70;1.50;;;;;;;;;;5103653;28;20424;-75
2023/10/31 04:17:21;;;;;;;16.77;2.10;;;;;;;;;;5102349;28;20496;-75
2023/10/31 04:19:47;;;;;;;15.32;1.40;;;;;;;;;;5100166;28;20401;-74
2023/10/31 04:22:15;;;;;;;14.80;1.70;;;;;;;;;;5103620;28;20423;-74
2023/10/31 04:24:43;;;;;;;15.10;1.40;;;;;;;;;;5109168;28;20491;-75
2023/10/31 04:27:09;;;;;;;15.30;1.50;;;;;;;;;;5106506;28;20488;-77
2023/10/31 04:29:36;;;;;;;14.13;1.30;;;;;;;;;;5090153;28;20401;-74
2023/10/31 04:32:03;;;;;;;16.55;1.20;;;;;;;;;;5101855;28;20400;-74
2023/10/31 04:34:30;;;;;;;16.40;1.73;;;;;;;;;;5104536;28;20404;-74
2023/10/31 04:36:56;;;;;;;14.27;1.20;;;;;;;;;;5087686;28;20406;-75
2023/10/31 04:39:24;;;;;;;14.80;1.63;;;;;;;;;;5102247;28;20462;-74
2023/10/31 04:41:51;;;;;;;15.20;1.70;;;;;;;;;;5092283;28;20459;-74
2023/10/31 04:44:17;;;;;;;14.90;1.60;;;;;;;;;;5101934;28;20483;-75
2023/10/31 04:46:44;;;;;;;15.30;1.40;;;;;;;;;;5097794;28;20491;-75
2023/10/31 04:49:11;;;;;;;14.55;1.50;;;;;;;;;;5104259;28;20512;-76
2023/10/31 04:51:38;;;;;;;14.80;1.65;;;;;;;;;;5102576;28;20441;-75
2023/10/31 04:54:05;;;;;;;15.20;1.45;;;;;;;;;;5087696;28;20411;-75
2023/10/31 04:56:33;;;;;;;15.50;1.60;;;;;;;;;;5103297;28;20887;-75
2023/10/31 04:59:00;;;;;;;14.80;1.48;;;;;;;;;;5081245;28;20475;-76
2023/10/31 05:01:26;;;;;;;16.30;1.55;;;;;;;;;;5100363;28;20866;-75
2023/10/31 05:03:53;;;;;;;14.48;1.50;;;;;;;;;;5105146;28;20402;-74
2023/10/31 05:06:36;;;;;;;15.25;1.60;;;;;;;;;;5100923;28;20775;-74
2023/10/31 05:09:03;;;;;;;15.85;1.70;;;;;;;;;;5085522;28;20438;-73
2023/10/31 05:11:29;;;;;;;14.88;1.50;;;;;;;;;;5104055;28;20765;-73
2023/10/31 05:13:57;;;;;;;16.10;1.80;;;;;;;;;;5095577;28;20433;-74
2023/10/31 05:16:24;;;;;;;16.75;2.45;;;;;;;;;;5101925;28;21092;-75
2023/10/31 05:18:50;;;;;;;15.75;2.08;;;;;;;;;;5100347;28;20959;-75
2023/10/31 05:21:19;;;;;;;14.30;1.60;;;;;;;;;;5098555;28;20409;-74
2023/10/31 05:23:45;;;;;;;15.07;1.80;;;;;;;;;;5095298;28;20434;-76
2023/10/31 05:26:12;;;;;;;15.10;1.70;;;;;;;;;;5104178;28;20505;-75
2023/10/31 05:28:39;;;;;;;14.60;1.80;;;;;;;;;;5102857;28;20414;-76
2023/10/31 05:31:06;;;;;;;15.27;1.73;;;;;;;;;;5099840;28;20409;-75
2023/10/31 05:33:33;;;;;;;14.38;1.63;;;;;;;;;;5099295;28;20410;-76
2023/10/31 05:36:00;;;;;;;14.90;1.70;;;;;;;;;;5099650;28;20738;-74
2023/10/31 05:38:26;;;;;;;15.40;2.40;;;;;;;;;;5103888;28;20814;-75
2023/10/31 05:40:53;;;;;;;16.50;1.90;;;;;;;;;;5103126;28;20498;-75
2023/10/31 05:43:19;;;;;;;16.00;1.83;;;;;;;;;;5101461;28;20404;-75
2023/10/31 05:45:46;;;;;;;15.25;1.80;;;;;;;;;;5100781;28;20412;-76
2023/10/31 05:48:14;;;;;;;14.70;1.70;;;;;;;;;;5102276;28;20874;-75
2023/10/31 05:50:41;;;;;;;14.85;1.63;;;;;;;;;;5084638;28;20470;-76
2023/10/31 05:53:08;;;;;;;14.93;1.83;;;;;;;;;;5103471;28;20404;-75
2023/10/31 05:55:38;;;;;;;14.93;1.85;;;;;;;;;;5099907;28;20418;-75
2023/10/31 05:58:04;;;;;;;17.45;2.05;;;;;;;;;;5107833;28;20438;-74
2023/10/31 06:00:31;;;;;;;14.70;1.60;;;;;;;;;;5099829;28;20434;-75
2023/10/31 06:02:57;;;;;;;15.25;1.88;;;;;;;;;;5101244;28;20401;-76
2023/10/31 06:05:25;;;;;;;15.20;1.90;;;;;;;;;;5108066;28;20431;-75
2023/10/31 06:07:52;;;;;;;15.57;1.80;;;;;;;;;;5100627;28;20408;-75
2023/10/31 06:10:19;;;;;;;15.00;1.90;;;;;;;;;;5090596;28;20422;-75
2023/10/31 06:12:45;;;;;;;17.27;2.00;;;;;;;;;;5098226;28;20406;-76
2023/10/31 06:15:12;;;;;;;16.25;2.65;;;;;;;;;;5102910;28;20431;-76
2023/10/31 06:17:39;;;;;;;16.52;2.30;;;;;;;;;;5089092;28;20405;-76
2023/10/31 06:20:07;;;;;;;16.50;2.80;;;;;;;;;;5099580;28;20494;-77
2023/10/31 06:22:35;;;;;;;15.68;2.60;;;;;;;;;;5103276;28;20467;-76
2023/10/31 06:25:02;;;;;;;15.50;2.50;;;;;;;;;;5090632;28;20852;-74
2023/10/31 06:27:28;;;;;;;16.08;2.17;;;;;;;;;;5101163;28;20420;-73
2023/10/31 06:29:55;;;;;;;15.20;2.23;;;;;;;;;;5100327;28;20400;-74
2023/10/31 06:32:42;;;;;;;15.88;2.25;;;;;;;;;;5089638;28;20406;-74
2023/10/31 06:35:08;;;;;;;17.30;2.65;;;;;;;;;;5099492;28;20491;-74
2023/10/31 06:37:37;;;;;;;15.20;2.33;;;;;;;;;;5104023;28;20929;-75
2023/10/31 06:40:04;;;;;;;15.82;2.35;;;;;;;;;;5098810;28;20903;-77
2023/10/31 06:42:31;;;;;;;16.20;2.20;;;;;;;;;;5092924;28;20475;-74
2023/10/31 06:44:57;;;;;;;15.80;2.30;;;;;;;;;;5097345;28;20440;-75
2023/10/31 06:47:24;;;;;;;15.60;2.25;;;;;;;;;;5098077;28;20486;-76
2023/10/31 06:49:51;;;;;;;15.30;2.40;;;;;;;;;;5098380;28;20408;-76
2023/10/31 06:52:17;;;;;;;15.93;2.30;;;;;;;;;;5103395;28;20516;-76
2023/10/31 06:54:45;;;;;;;15.70;2.50;;;;;;;;;;5097022;28;21157;-75
2023/10/31 06:57:12;;;;;;;15.90;2.70;;;;;;;;;;5088228;28;20485;-75
2023/10/31 06:59:39;;;;;;;16.02;2.33;;;;;;;;;;5097327;28;20505;-75
2023/10/31 07:02:05;;;;;;;15.40;2.30;;;;;;;;;;5098077;28;20483;-74
2023/10/31 07:04:32;;;;;;;16.70;2.70;;;;;;;;;;5098458;28;20798;-75
2023/10/31 07:06:59;;;;;;;17.33;2.50;;;;;;;;;;5091055;28;20414;-76
2023/10/31 07:09:26;;;;;;;15.45;2.40;;;;;;;;;;5099420;28;20501;-74
2023/10/31 07:11:54;;;;;;;15.00;2.40;;;;;;;;;;5102361;28;20554;-75
2023/10/31 07:14:21;;;;;;;15.48;2.25;;;;;;;;;;5099074;28;20412;-74
2023/10/31 07:16:48;;;;;;;17.55;2.30;;;;;;;;;;5096892;28;20511;-76
2023/10/31 07:19:15;;;;;;;15.40;2.53;;;;;;;;;;5105190;28;20420;-76
2023/10/31 07:21:42;;;;;;;16.60;3.00;;;;;;;;;;5100221;28;20425;-75
2023/10/31 07:24:08;;;;;;;16.33;2.75;;;;;;;;;;5102473;28;20405;-74
2023/10/31 07:26:35;;;;;;;16.20;3.10;;;;;;;;;;5104684;28;20417;-74
2023/10/31 07:29:04;;;;;;;15.75;2.60;;;;;;;;;;5100092;28;20422;-75
2023/10/31 07:31:30;;;;;;;15.55;2.60;;;;;;;;;;5088563;28;20479;-75
2023/10/31 07:33:57;;;;;;;16.20;3.00;;;;;;;;;;5082064;28;20410;-75
2023/10/31 07:36:25;;;;;;;16.45;3.00;;;;;;;;;;5097195;28;20471;-75
2023/10/31 07:38:51;;;;;;;17.10;3.20;;;;;;;;;;5098761;28;20510;-76
2023/10/31 07:41:18;;;;;;;17.20;3.10;;;;;;;;;;5086397;28;20410;-75
2023/10/31 07:43:45;;;;;;;18.70;3.40;;;;;;;;;;5099355;28;20410;-75
2023/10/31 07:46:13;;;;;;;17.40;3.80;;;;;;;;;;5083129;28;21024;-76
2023/10/31 07:48:39;;;;;;;17.65;3.40;;;;;;;;;;5083392;28;20410;-75
2023/10/31 07:51:06;;;;;;;18.42;3.70;;;;;;;;;;5099766;28;20398;-75
2023/10/31 07:53:32;;;;;;;17.60;3.33;;;;;;;;;;5097742;28;20763;-75
2023/10/31 07:55:59;;;;;;;16.15;3.40;;;;;;;;;;5080072;28;20408;-75
2023/10/31 07:58:26;;;;;;;18.88;4.20;;;;;;;;;;5081186;28;20418;-76
2023/10/31 08:00:52;;;;;;;16.45;3.40;;;;;;;;;;5097666;28;20438;-75
2023/10/31 08:03:20;;;;;;;17.13;3.55;;;;;;;;;;5096535;28;20405;-77
2023/10/31 08:05:47;;;;;;;16.90;3.50;;;;;;;;;;5088459;28;20665;-75
2023/10/31 08:08:13;;;;;;;17.23;2.95;;;;;;;;;;5095624;28;20439;-75
2023/10/31 08:10:40;;;;;;;19.15;3.30;;;;;;;;;;5094600;28;20405;-75
2023/10/31 08:13:07;;;;;;;16.38;3.28;;;;;;;;;;5095175;28;20416;-75
2023/10/31 08:15:33;;;;;;;16.40;3.30;;;;;;;;;;5095902;28;20485;-75
2023/10/31 08:18:00;;;;;;;16.63;3.05;;;;;;;;;;5083224;28;20456;-75
2023/10/31 08:20:33;;;;;;;15.88;2.75;;;;;;;;;;5081952;28;20392;-76
2023/10/31 08:22:59;;;;;;;15.82;2.67;;;;;;;;;;5087959;28;20894;-75
2023/10/31 08:25:26;;;;;;;16.90;2.63;;;;;;;;;;5097936;28;20418;-78
2023/10/31 08:27:52;;;;;;;16.52;2.80;;;;;;;;;;5100365;28;20873;-75
2023/10/31 08:30:20;;;;;;;17.30;2.73;;;;;;;;;;5088126;28;20591;-76
2023/10/31 08:32:46;;;;;;;17.25;2.83;;;;;;;;;;5099022;28;20505;-75
2023/10/31 08:35:14;;;;;;;15.40;2.20;;;;;;;;;;5083851;28;20413;-75
2023/10/31 08:37:42;;;;;;;16.17;2.30;;;;;;;;;;5082505;28;20406;-75
2023/10/31 08:40:09;;;;;;;15.20;2.15;;;;;;;;;;5100637;28;20406;-75
2023/10/31 08:42:35;;;;;;;15.98;2.45;;;;;;;;;;5100617;28;20412;-75
2023/10/31 08:45:03;;;;;;;17.58;2.30;;;;;;;;;;5101943;28;20402;-76
2023/10/31 08:47:30;;;;;;;15.50;2.50;;;;;;;;;;5099060;27;20436;-76
2023/10/31 08:49:57;;;;;;;15.20;2.20;;;;;;;;;;5100972;28;21018;-75
2023/10/31 08:52:23;;;;;;;15.55;2.67;;;;;;;;;;5107856;28;20408;-75
2023/10/31 08:54:51;;;;;;;16.17;2.70;;;;;;;;;;5107257;28;20973;-75
2023/10/31 08:57:18;;;;;;;15.53;2.20;;;;;;;;;;5093520;28;20408;-75
2023/10/31 08:59:44;;;;;;;16.77;2.40;;;;;;;;;;5101052;28;20896;-76
2023/10/31 09:02:11;;;;;;;16.40;2.30;;;;;;;;;;5090342;28;20414;-75
2023/10/31 09:04:38;;;;;;;16.75;2.40;;;;;;;;;;5103510;28;20406;-76
2023/10/31 09:07:04;;;;;;;15.10;2.10;;;;;;;;;;5088802;28;20418;-75
2023/10/31 09:09:31;;;;;;;15.43;2.47;;;;;;;;;;5109094;28;20408;-74
2023/10/31 09:11:59;;;;;;;17.88;3.10;;;;;;;;;;5100602;28;20841;-74
2023/10/31 09:14:25;;;;;;;15.65;2.03;;;;;;;;;;5100995;28;20404;-74
2023/10/31 09:16:52;;;;;;;16.75;2.30;;;;;;;;;;5099269;28;20400;-75
2023/10/31 09:19:19;;;;;;;15.35;2.15;;;;;;;;;;5102937;28;20408;-77
2023/10/31 09:21:46;;;;;;;15.30;2.30;;;;;;;;;;5093063;28;20751;-74
2023/10/31 09:24:12;;;;;;;16.60;2.90;;;;;;;;;;5107520;28;20567;-74
2023/10/31 09:26:41;;;;;;;15.40;2.40;;;;;;;;;;5101940;28;20512;-76
2023/10/31 09:29:09;;;;;;;16.70;2.30;;;;;;;;;;5101764;28;20487;-74
2023/10/31 09:31:51;;;;;;;15.25;2.22;;;;;;;;;;5098753;28;20818;-75
2023/10/31 09:34:18;;;;;;;15.45;2.25;;;;;;;;;;5102168;28;20408;-75
2023/10/31 09:36:44;;;;;;;17.13;2.30;;;;;;;;;;5101951;28;20405;-75
2023/10/31 09:39:12;;;;;;;16.30;2.40;;;;;;;;;;5095735;28;20455;-75
2023/10/31 09:41:39;;;;;;;15.52;2.45;;;;;;;;;;5098110;28;20502;-75
2023/10/31 09:44:06;;;;;;;16.50;2.80;;;;;;;;;;5101522;28;20485;-75
2023/10/31 09:46:34;;;;;;;15.55;2.03;;;;;;;;;;5101530;28;20513;-77
2023/10/31 09:49:02;;;;;;;16.38;2.10;;;;;;;;;;5085467;28;20453;-76
2023/10/31 09:51:29;;;;;;;15.23;2.10;;;;;;;;;;5101440;28;20404;-75
2023/10/31 09:53:57;;;;;;;16.83;2.30;;;;;;;;;;5084552;28;20945;-76
2023/10/31 09:56:24;;;;;;;15.05;1.73;;;;;;;;;;5099196;28;20431;-75
2023/10/31 09:58:51;;;;;;;14.60;1.60;;;;;;;;;;5099162;28;20405;-76
2023/10/31 10:01:18;;;;;;;15.60;1.80;;;;;;;;;;5084949;28;20826;-74
2023/10/31 10:03:46;;;;;;;15.90;1.90;;;;;;;;;;5101773;28;20416;-76
2023/10/31 10:06:13;;;;;;;14.32;1.50;;;;;;;;;;5097389;28;20453;-75
2023/10/31 10:08:39;;;;;;;15.68;2.40;;;;;;;;;;5103349;28;20437;-76
2023/10/31 10:11:06;;;;;;;14.30;1.40;;;;;;;;;;5104095;28;20484;-75
2023/10/31 10:13:33;;;;;;;16.75;1.80;;;;;;;;;;5101024;28;20921;-76
2023/10/31 10:15:59;;;;;;;14.50;1.40;;;;;;;;;;5098764;28;20441;-76
2023/10/31 10:18:26;;;;;;;15.30;2.00;;;;;;;;;;5107305;28;20488;-75
2023/10/31 10:20:58;;;;;;;14.40;1.40;;;;;;;;;;5097891;28;20432;-74
2023/10/31 10:23:26;;;;;;;15.30;1.50;;;;;;;;;;5099210;28;20941;-75
2023/10/31 10:25:54;;;;;;;14.82;1.50;;;;;;;;;;5102296;28;20415;-74
2023/10/31 10:28:20;;;;;;;15.70;1.70;;;;;;;;;;5101158;28;20832;-75
2023/10/31 10:30:47;;;;;;;15.20;1.60;;;;;;;;;;5098957;28;20499;-74
2023/10/31 10:33:14;;;;;;;15.43;1.63;;;;;;;;;;5095517;28;20530;-74
2023/10/31 10:35:41;;;;;;;15.77;1.70;;;;;;;;;;5098959;28;20493;-74
2023/10/31 10:38:12;;;;;;;15.27;1.50;;;;;;;;;;5099077;28;20871;-75
2023/10/31 10:40:40;;;;;;;14.70;1.30;;;;;;;;;;5109163;28;20400;-74
2023/10/31 10:43:10;;;;;;;14.70;1.40;;;;;;;;;;5085476;28;20465;-75
2023/10/31 10:45:38;;;;;;;15.07;1.30;;;;;;;;;;5090666;28;20396;-75
2023/10/31 10:48:06;;;;;;;14.85;1.33;;;;;;;;;;5098594;28;20418;-76
2023/10/31 10:50:34;;;;;;;14.80;1.20;;;;;;;;;;5093827;28;20396;-77
2023/10/31 10:53:10;;;;;;;14.50;1.40;;;;;;;;;;5096590;28;20929;-76
2023/10/31 10:55:39;;;;;;;14.55;1.20;;;;;;;;;;5094392;28;20425;-74
2023/10/31 10:58:08;;;;;;;15.65;1.40;;;;;;;;;;5107004;28;20402;-74
2023/10/31 11:00:36;;;;;;;14.60;1.48;;;;;;;;;;5089139;28;20401;-73
2023/10/31 11:03:03;;;;;;;14.40;1.30;;;;;;;;;;5097785;28;20406;-74
2023/10/31 11:05:31;;;;;;;17.85;1.58;;;;;;;;;;5081192;28;20809;-74
2023/10/31 11:07:59;;;;;;;15.70;1.50;;;;;;;;;;5097536;28;20424;-74
2023/10/31 11:10:27;;;;;;;15.13;1.30;;;;;;;;;;5089090;28;20468;-75
2023/10/31 11:12:56;;;;;;;15.80;1.10;;;;;;;;;;5081490;28;20941;-77
2023/10/31 11:15:23;;;;;;;14.00;1.10;;;;;;;;;;5100352;28;20402;-77
2023/10/31 11:17:52;;;;;;;14.13;1.40;;;;;;;;;;5090924;28;20411;-75
2023/10/31 11:20:19;;;;;;;14.90;1.25;;;;;;;;;;5081663;28;20414;-76
2023/10/31 11:22:46;;;;;;;14.30;1.13;;;;;;;;;;5100197;28;20398;-77
2023/10/31 11:25:13;;;;;;;15.00;1.30;;;;;;;;;;5099016;28;20417;-75
2023/10/31 11:27:52;;;;;;;14.20;1.30;;;;;;;;;;5083119;28;20917;-76
2023/10/31 11:30:27;;;;;;;14.00;1.10;;;;;;;;;;5096765;28;20405;-77
2023/10/31 11:32:54;;;;;;;14.40;1.20;;;;;;;;;;5079147;28;20817;-77
2023/10/31 11:35:21;;;;;;;14.95;1.10;;;;;;;;;;5098765;28;20405;-75
2023/10/31 11:37:49;;;;;;;14.60;1.20;;;;;;;;;;5097069;28;20398;-76
2023/10/31 11:40:20;;;;;;;14.85;1.30;;;;;;;;;;5088541;28;20866;-76
2023/10/31 11:42:47;;;;;;;14.80;1.40;;;;;;;;;;5097070;28;20541;-75
2023/10/31 11:45:25;;;;;;;14.23;1.40;;;;;;;;;;5106324;28;20489;-75
2023/10/31 11:47:52;;;;;;;14.73;1.23;;;;;;;;;;5097354;28;20726;-74
2023/10/31 11:50:19;;;;;;;14.98;1.10;;;;;;;;;;5092235;28;20410;-75
2023/10/31 11:52:57;;;;;;;14.52;1.30;;;;;;;;;;5099970;28;20836;-75
2023/10/31 11:55:25;;;;;;;15.50;1.48;;;;;;;;;;5101369;28;20412;-76
2023/10/31 11:57:51;;;;;;;15.43;1.30;;;;;;;;;;5098405;28;20416;-75
2023/10/31 12:00:20;;;;;;;15.20;1.33;;;;;;;;;;5098407;28;20840;-76
2023/10/31 12:02:58;;;;;;;14.80;1.23;;;;;;;;;;5102201;28;20420;-75
2023/10/31 12:05:25;;;;;;;14.60;1.40;;;;;;;;;;5086135;28;20418;-75
2023/10/31 12:07:53;;;;;;;14.50;1.20;;;;;;;;;;5093511;28;20786;-76
2023/10/31 12:10:24;;;;;;;14.10;1.13;;;;;;;;;;5097130;28;20456;-75
2023/10/31 12:12:51;;;;;;;14.60;1.40;;;;;;;;;;5105945;28;20501;-75
2023/10/31 12:15:17;;;;;;;14.20;1.10;;;;;;;;;;5100398;28;20461;-74
2023/10/31 12:17:44;;;;;;;14.00;1.10;;;;;;;;;;5094204;28;20460;-76
2023/10/31 12:20:12;;;;;;;14.30;1.20;;;;;;;;;;5102770;28;20480;-74
2023/10/31 12:22:40;;;;;;;14.73;1.20;;;;;;;;;;5103842;28;20404;-75
2023/10/31 12:25:08;;;;;;;15.70;1.10;;;;;;;;;;5104295;28;20404;-76
2023/10/31 12:27:44;;;;;;;15.40;1.50;;;;;;;;;;5104458;28;20895;-75
2023/10/31 12:30:12;;;;;;;14.30;1.40;;;;;;;;;;5102556;28;20396;-76
2023/10/31 12:32:39;;;;;;;14.18;1.30;;;;;;;;;;5104386;28;20498;-75
2023/10/31 12:35:06;;;;;;;15.20;1.40;;;;;;;;;;5103666;28;20418;-75
2023/10/31 12:37:34;;;;;;;15.05;1.30;;;;;;;;;;5102593;28;20404;-74
2023/10/31 12:40:04;;;;;;;18.60;1.30;;;;;;;;;;5109088;28;20407;-76
2023/10/31 12:42:31;;;;;;;15.27;1.40;;;;;;;;;;5103526;28;20899;-75
2023/10/31 12:44:59;;;;;;;14.77;1.45;;;;;;;;;;5102051;28;20482;-76
2023/10/31 12:47:25;;;;;;;15.05;1.50;;;;;;;;;;5104727;28;20420;-75
2023/10/31 12:50:05;;;;;;;16.80;1.65;;;;;;;;;;5098047;28;20409;-75
2023/10/31 12:52:46;;;;;;;14.90;1.30;;;;;;;;;;5102828;28;20403;-75
2023/10/31 12:55:13;;;;;;;15.88;1.60;;;;;;;;;;5092716;28;21052;-75
2023/10/31 12:57:43;;;;;;;15.20;1.25;;;;;;;;;;5101849;28;20412;-75
2023/10/31 13:00:12;;;;;;;17.20;1.50;;;;;;;;;;5107888;28;20469;-74
2023/10/31 13:02:39;;;;;;;15.90;1.30;;;;;;;;;;5101285;28;20409;-76
2023/10/31 13:05:10;;;;;;;14.10;1.40;;;;;;;;;;5102269;28;20410;-76
2023/10/31 13:07:36;;;;;;;15.85;1.20;;;;;;;;;;5104465;28;20418;-77
2023/10/31 13:10:05;;;;;;;16.13;1.80;;;;;;;;;;5105176;28;20845;-75
2023/10/31 13:12:33;;;;;;;15.70;1.40;;;;;;;;;;5103393;28;20416;-74
2023/10/31 13:15:00;;;;;;;16.17;1.30;;;;;;;;;;5103124;28;20892;-75
2023/10/31 13:17:28;;;;;;;15.02;1.30;;;;;;;;;;5103273;28;20416;-75
2023/10/31 13:19:54;;;;;;;16.25;1.23;;;;;;;;;;5101750;28;20408;-75
2023/10/31 13:22:21;;;;;;;15.23;1.80;;;;;;;;;;5086762;28;20760;-76
2023/10/31 13:24:48;;;;;;;15.13;1.30;;;;;;;;;;5101802;28;20932;-75
2023/10/31 13:27:17;;;;;;;15.63;1.70;;;;;;;;;;5101043;28;20398;-77
2023/10/31 13:29:45;;;;;;;16.58;1.70;;;;;;;;;;5098695;28;20820;-76
2023/10/31 13:32:12;;;;;;;16.73;1.70;;;;;;;;;;5098121;28;20451;-76
2023/10/31 13:34:38;;;;;;;16.77;2.58;;;;;;;;;;5104530;28;20516;-74
2023/10/31 13:37:06;;;;;;;15.90;1.35;;;;;;;;;;5090590;28;20955;-75
2023/10/31 13:39:32;;;;;;;16.45;1.40;;;;;;;;;;5100795;28;20475;-78
2023/10/31 13:41:59;;;;;;;16.80;1.40;;;;;;;;;;5098433;28;20508;-74
2023/10/31 13:44:27;;;;;;;14.70;1.30;;;;;;;;;;5089939;28;20413;-76
2023/10/31 13:46:54;;;;;;;16.88;1.85;;;;;;;;;;5092033;28;20402;-76
2023/10/31 13:49:21;;;;;;;16.37;1.70;;;;;;;;;;5102975;28;20497;-74
2023/10/31 13:51:50;;;;;;;14.20;1.30;;;;;;;;;;5086581;28;20514;-74
2023/10/31 13:54:17;;;;;;;16.27;1.50;;;;;;;;;;5101282;28;20482;-76
2023/10/31 13:56:43;;;;;;;15.38;1.40;;;;;;;;;;5101183;28;20745;-76
2023/10/31 13:59:10;;;;;;;17.00;1.40;;;;;;;;;;5108638;28;20436;-75
2023/10/31 14:01:38;;;;;;;14.40;1.40;;;;;;;;;;5097555;28;20953;-75
2023/10/31 14:04:06;;;;;;;15.20;1.70;;;;;;;;;;5111670;27;20410;-75
2023/10/31 14:06:33;;;;;;;16.75;1.60;;;;;;;;;;5091455;28;20409;-75
2023/10/31 14:09:01;;;;;;;16.05;1.33;;;;;;;;;;5085713;28;20507;-75
2023/10/31 14:11:28;;;;;;;16.43;1.40;;;;;;;;;;5092511;28;20934;-75
2023/10/31 14:13:55;;;;;;;16.10;1.50;;;;;;;;;;5097812;28;20469;-74
2023/10/31 14:16:21;;;;;;;15.20;1.45;;;;;;;;;;5100740;28;20406;-74
2023/10/31 14:18:50;;;;;;;17.50;1.50;;;;;;;;;;5101058;28;20402;-75
2023/10/31 14:21:16;;;;;;;15.05;1.45;;;;;;;;;;5101635;28;20441;-74
2023/10/31 14:23:44;;;;;;;16.42;1.40;;;;;;;;;;5084270;28;20495;-75
2023/10/31 14:26:12;;;;;;;15.60;1.50;;;;;;;;;;5099443;28;20833;-75
2023/10/31 14:28:40;;;;;;;16.40;1.80;;;;;;;;;;5097949;28;20899;-73
2023/10/31 14:31:07;;;;;;;15.40;1.30;;;;;;;;;;5102482;28;20914;-76
2023/10/31 14:33:33;;;;;;;18.40;1.50;;;;;;;;;;5083823;28;20421;-76